Terminal Aerodrome Forecast
Issued by NWS La Crosse, WI

Home | Current Version | Previous Version | Text Only | Print | Product List | Glossary On
Versions: 1 2 3 4 5 6 7 8 9 10 11 12 13 14 15 16 17 18 19 20 21 22 23 24 25 26 27 28 29 30 31 32 33 34 35 36 37
000
FTUS43 KARX 221348 AAB
TAFRST
TAF AMD
KRST 221348Z 2214/2312 21013KT 1/4SM FG VV002
     FM221600 21014KT 2SM BR OVC004
     FM221800 21012KT 5SM BR OVC006
     FM230400 19015KT 3SM -DZ BR OVC003
     FM230600 19016KT 1/2SM -DZ FG VV002=

USA.gov is the U.S. government's official web portal to all federal, state and local government web resources and services.